Tiempo atmosférico en la estación meteorológica de Ejea De Los Caballeros, Zaragoza (321 m.)



Fecha
DESCASC
Temp. máxima en grados centígrados (hora)
DESCASC
Temp. mínima en grados centígrados (hora)
DESCASC
Temp. media en grados centígrados
DESCASC
Racha de viento máxima en m/sg (hora)
DESCASC
Velocidad máxima media en intervalos de 10 minutos(hora)
DESCASC
Precipitaciones diarias en mm
DESCASC
Precipitaciones de 00:00 a 06:00 en mm
DESCASC
Precipitaciones de 06:00 a 12:00 en mm
DESCASC
Precipitaciones de 12:00 a 18:00 en mm
DESCASC
Precipitaciones de 18:00 a 24:00 en mm
DESCASC
19-05-2019 17 (17:00) 9 (02:50) 13 8.89 (15:10) 3.33 (15:10) 0.6 0.6 0 0 0
18-05-2019 17.6 (15:10) 7.6 (06:50) 12.6 9.44 (18:10) 3.33 (17:40) 0.6 0 0 0 0.6
17-05-2019 16.6 (00:00) 8.9 (07:00) 12.8 14.17 (05:10) 7.22 (05:10) 38.6 30.6 7.8 0.2 0
16-05-2019 25.8 (17:10) 8.2 (00:00) 17 8.33 (21:50) 3.06 (21:50) 0.6 0 0 0 0.6
15-05-2019 30.6 (16:10) 7.5 (00:00) 19.1 10.56 (17:00) 4.44 (17:00) 0 0 0 0 0
14-05-2019 27.2 (17:00) 5.6 (00:00) 16.4 4.72 (15:40) 1.67 (20:40) 0 0 0 0 0
13-05-2019 27.2 (15:40) 8.2 (00:00) 17.7 6.94 (13:50) 2.22 (17:20) 0 0 0 0 0
12-05-2019 25 (16:10) 8.7 (00:00) 16.8 9.72 (15:40) 3.33 (18:30) 0 0 0 0 0
11-05-2019 21.6 (16:10) 11.4 (00:00) 16.5 11.39 (17:30) 4.44 (15:40) 0 0 0 0 0
10-05-2019 28.1 (16:40) 12.3 (00:00) 20.2 5.56 (17:20) 1.67 (17:00) 0 0 0 0 0
09-05-2019 22.5 (18:00) 7.9 (00:00) 15.2 5 (13:40) 1.67 (12:30) 0 0 0 0 0
08-05-2019 24.2 (16:00) 13.4 (00:00) 18.8 13.06 (15:40) 5.83 (15:40) 0.6 0.2 0.4 0 0
07-05-2019 25 (15:30) 8.2 (00:00) 16.6 7.22 (11:10) 2.5 (15:00) 0 0 0 0 0
06-05-2019 23.8 (17:30) 2.2 (00:00) 13 4.44 (16:50) 1.67 (16:50) 0 0 0 0 0
05-05-2019 18.4 (15:50) 4.4 (00:00) 11.4 10 (17:00) 3.61 (14:40) 0 0 0 0 0
04-05-2019 19.1 (16:40) 7.3 (00:00) 13.2 11.67 (16:50) 5 (18:10) 0 0 0 0 0
03-05-2019 17.7 (16:10) 7.7 (00:00) 12.7 10.83 (19:20) 4.44 (19:20) 0.4 0 0.4 0 0
02-05-2019 22 (14:20) 10.1 (06:20) 16.1 8.06 (15:00) 2.78 (18:40) 0 0 0 0 0
01-05-2019 24.7 (17:20) 4.7 (00:00) 14.7 6.39 (19:30) 3.06 (19:40) 0 0 0 0 0
30-04-2019 25.8 (16:40) 5.1 (00:00) 15.4 7.5 (18:10) 4.17 (18:10) 0 0 0 0 0
29-04-2019 24.9 (17:10) 5 (00:00) 14.9 6.67 (18:50) 2.5 (16:00) 0 0 0 0 0
28-04-2019 22 (16:40) 8.9 (00:00) 15.4 9.72 (05:40) 3.33 (05:40) 0 0 0 0 0
27-04-2019 21 (16:20) 5.8 (00:00) 13.4 9.17 (16:30) 4.17 (19:00) 0 0 0 0 0
26-04-2019 19.2 (15:10) 6.2 (00:00) 12.7 7.5 (13:50) 2.78 (13:20) 0 0 0 0 0
25-04-2019 17.1 (14:50) 9.6 (00:00) 13.4 8.89 (20:10) 3.61 (17:30) 7.6 7 0 0.6 0
24-04-2019 11.9 (15:20) 7.6 (00:00) 9.7 11.39 (20:00) 3.61 (20:00) 8.4 0.8 0 0.2 7.4
23-04-2019 21.1 (12:50) 10 (00:00) 15.6 8.33 (15:40) 2.78 (13:50) 2 0 0 1.8 0.2

Gráficas

Temp. máximas Temp. mínimas Temp. medias Precipitaciones Rachas de viento máximas Velocidades máximas media en intervalos de 10 minutos

Datos horarios

Fecha y hora oficial Temperatura (ºC) Velocidad del viento (km/h) Dirección del viento Racha (km/h) Dirección de racha Precipitación (mm) Presión (hPa) Tendencia (hPa) Humedad (%)
2019-05-22 23:00:00 16.8 0 Calma 3 Nordeste 0 -- -- 65
2019-05-22 22:00:00 18.9 0 Calma 0 Calma 0 -- -- 54
2019-05-22 21:00:00 21.3 0 Calma 7 Oeste 0 -- -- 49
2019-05-22 20:00:00 23.2 2 Oeste 11 Sudoeste 0 -- -- 39
2019-05-22 19:00:00 24 3 Sur 11 Norte 0 -- -- 35
2019-05-22 18:00:00 25 3 Noroeste 13 Norte 0 -- -- 27
2019-05-22 17:00:00 25.8 4 Norte 14 Norte 0 -- -- 39
2019-05-22 16:00:00 25.6 3 Sudoeste 12 Sudoeste 0 -- -- 37
2019-05-22 15:00:00 24.2 4 Sur 12 Sudoeste 0 -- -- 38
2019-05-22 14:00:00 23.1 4 Sudoeste 12 Sudoeste 0 -- -- 47
2019-05-22 13:00:00 21.7 4 Sudoeste 10 Sudoeste 0 -- -- 48
2019-05-22 12:00:00 19.7 4 Sudoeste 10 Sudoeste 0 -- -- 59
2019-05-22 11:00:00 17.3 3 Noroeste 10 Sur 0 -- -- 65
2019-05-22 10:00:00 14.4 3 Oeste 8 Norte 0 -- -- 74
2019-05-22 09:00:00 10.2 3 Norte 6 Noroeste 0 -- -- 88
2019-05-22 08:00:00 7.8 2 Sudoeste 3 Sudoeste 0 -- -- 93
2019-05-22 07:00:00 7.8 0 Calma 5 Norte 0 -- -- 92
2019-05-22 06:00:00 8.4 0 Calma 5 Noroeste 0 -- -- 92
2019-05-22 05:00:00 9 0 Calma 4 Sur 0 -- -- 91
2019-05-22 04:00:00 9.7 2 Sudeste 7 Sudoeste 0 -- -- 88
2019-05-22 03:00:00 10.7 0 Calma 10 Noroeste 0 -- -- 84
2019-05-22 02:00:00 11.8 3 Oeste 8 Noroeste 0 -- -- 80
2019-05-22 01:00:00 12.2 3 Sudoeste 10 Sudoeste 0 -- -- 77
2019-05-22 00:00:00 12.9 2 Sur 8 Sudoeste 0 -- -- 73
2019-05-21 23:00:00 14.6 3 Oeste 10 Oeste 0 -- -- 65
2019-05-21 22:00:00 15.9 3 Oeste 11 Noroeste 0 -- -- 60
2019-05-21 21:00:00 18.4 4 Noroeste 18 Norte 0 -- -- 49
2019-05-21 20:00:00 20.7 6 Norte 22 Noroeste 0 -- -- 42
2019-05-21 19:00:00 21.9 5 Noroeste 19 Norte 0 -- -- 37
2019-05-21 18:00:00 23.2 6 Oeste 20 Oeste 0 -- -- 38
2019-05-21 17:00:00 24 5 Oeste 18 Noroeste 0 -- -- 37
2019-05-21 16:00:00 23.2 5 Sudoeste 19 Noroeste 0 -- -- 38
2019-05-21 15:00:00 22.7 6 Sudoeste 19 Sudoeste 0 -- -- 43
2019-05-21 14:00:00 22.3 4 Oeste 14 Noroeste 0 -- -- 43
2019-05-21 13:00:00 21.2 5 Oeste 14 Sudoeste 0 -- -- 45
2019-05-21 12:00:00 19.3 3 Oeste 12 Norte 0 -- -- 48
2019-05-21 11:00:00 17.2 5 Sudoeste 14 Sudoeste 0 -- -- 61
2019-05-21 10:00:00 14.4 3 Oeste 10 Noroeste 0 -- -- 71
2019-05-21 09:00:00 10.1 3 Oeste 8 Noroeste 0 -- -- 87
2019-05-21 08:00:00 7.3 3 Oeste 9 Noroeste 0 -- -- 91
2019-05-21 07:00:00 6.6 0 Calma 6 Sudoeste 0 -- -- 92
2019-05-21 06:00:00 7 0 Calma 5 Nordeste 0 -- -- 90
2019-05-21 05:00:00 8.1 0 Calma 8 Nordeste 0 -- -- 87
2019-05-21 04:00:00 9.2 0 Calma 8 Oeste 0 -- -- 84
2019-05-21 03:00:00 10.1 2 Sudoeste 9 Oeste 0 -- -- 83
2019-05-21 02:00:00 10.5 3 Sudoeste 9 Noroeste 0 -- -- 81
2019-05-21 01:00:00 10.7 2 Oeste 6 Sudoeste 0 -- -- 78
2019-05-21 00:00:00 11.4 2 Sudoeste 7 Sudoeste 0 -- -- 76
2019-05-20 23:00:00 13.1 2 Sur 7 Norte 0 -- -- 69
2019-05-20 22:00:00 15.3 2 Nordeste 8 Noroeste 0 -- -- 58
2019-05-20 21:00:00 17.5 3 Sudoeste 18 Noroeste 0 -- -- 48
2019-05-20 20:00:00 18.9 5 Norte 24 Norte 0 -- -- 43
2019-05-20 19:00:00 19.7 11 Norte 28 Noroeste 0 -- -- 41
2019-05-20 18:00:00 20.8 5 Oeste 22 Oeste 0 -- -- 39
2019-05-20 17:00:00 21.4 5 Oeste 23 Norte 0 -- -- 42
2019-05-20 16:00:00 21.4 7 Oeste 24 Sudoeste 0 -- -- 40
2019-05-20 15:00:00 20.7 4 Oeste 24 Norte 0 -- -- 44
2019-05-20 14:00:00 19.7 8 Norte 29 Norte 0 -- -- 45
2019-05-20 13:00:00 18.8 5 Noroeste 25 Oeste 0 -- -- 51
2019-05-20 12:00:00 17.1 6 Oeste 22 Noroeste 0 -- -- 57
2019-05-20 11:00:00 15.3 6 Oeste 21 Noroeste 0 -- -- 60
2019-05-20 10:00:00 13.4 6 Oeste 25 Noroeste 0 -- -- 62
2019-05-20 09:00:00 10.7 4 Oeste 22 Noroeste 0 -- -- 75
2019-05-20 08:00:00 8 3 Oeste 12 Noroeste 0 -- -- 83
2019-05-20 07:00:00 7.5 3 Oeste 18 Oeste 0 -- -- 84
2019-05-20 06:00:00 7.9 4 Oeste 17 Noroeste 0 -- -- 82
2019-05-20 05:00:00 8 4 Oeste 17 Noroeste 0 -- -- 83
2019-05-20 04:00:00 8 4 Oeste 18 Noroeste 0 -- -- 84
2019-05-20 03:00:00 8.5 5 Oeste 19 Noroeste 0 -- -- 84
2019-05-20 02:00:00 8.7 4 Oeste 15 Noroeste 0 -- -- 85
2019-05-20 01:00:00 9.6 2 Oeste 10 Norte 0 -- -- 82
2019-05-20 00:00:00 10.2 4 Oeste 14 Oeste 0 -- -- 80
2019-05-19 23:00:00 10.6 3 Oeste 11 Noroeste 0 -- -- 78
2019-05-19 22:00:00 11.8 2 Sudoeste 14 Noroeste 0 -- -- 75
2019-05-19 21:00:00 13.2 5 Noroeste 27 Noroeste 0 -- -- 66
2019-05-19 20:00:00 14.2 6 Oeste 26 Oeste 0 -- -- 63
2019-05-19 19:00:00 15 7 Noroeste 27 Norte 0 -- -- 58
2019-05-19 18:00:00 15.9 8 Norte 30 Noroeste 0 -- -- 58
2019-05-19 17:00:00 17 8 Noroeste 28 Sudoeste 0 -- -- 55
2019-05-19 16:00:00 16.3 8 Oeste 32 Nordeste 0 -- -- 57
2019-05-19 15:00:00 16.1 8 Norte 28 Oeste 0 -- -- 60
2019-05-19 14:00:00 16.1 6 Noroeste 30 Oeste 0 -- -- 61
2019-05-19 13:00:00 15.6 8 Oeste 30 Oeste 0 -- -- 62
2019-05-19 12:00:00 14 5 Oeste 20 Noroeste 0 -- -- 71
2019-05-19 11:00:00 11.8 4 Oeste 17 Noroeste 0 -- -- 76
2019-05-19 10:00:00 11.1 4 Oeste 16 Oeste 0 -- -- 82
2019-05-19 09:00:00 11.3 4 Noroeste 17 Noroeste 0 -- -- 79
2019-05-19 08:00:00 10.1 4 Norte 16 Oeste 0 -- -- 84
2019-05-19 07:00:00 9.1 2 Oeste 13 Oeste 0 -- -- 87
2019-05-19 06:00:00 9 2 Oeste 13 Oeste 0 -- -- 86
2019-05-19 05:00:00 9.1 2 Sudoeste 6 Sudoeste 0.2 -- -- 90
2019-05-19 04:00:00 9 0 Calma 5 Oeste 0 -- -- 89
2019-05-19 03:00:00 9 0 Calma 6 Norte 0.2 -- -- 90
2019-05-19 02:00:00 9.1 3 Sudoeste 8 Sudoeste 0.2 -- -- 90
2019-05-19 01:00:00 9.2 0 Calma 8 Sudoeste 0 -- -- 87
2019-05-19 00:00:00 9.6 0 Calma 13 Norte 0.6 -- -- 85
2019-05-18 23:00:00 10.5 6 Norte 15 Norte 0 -- -- 75
2019-05-18 22:00:00 11.5 5 Norte 15 Noroeste 0 -- -- 67
2019-05-18 21:00:00 12.2 6 Norte 26 Norte 0 -- -- 61
2019-05-18 20:00:00 14.1 10 Norte 22 Norte 0 -- -- 55
2019-05-18 19:00:00 15.2 6 Norte 34 Noroeste 0 -- -- 52
2019-05-18 18:00:00 16.2 10 Norte 32 Norte 0 -- -- 51
2019-05-18 17:00:00 17.2 7 Noroeste 22 Norte 0 -- -- 47
2019-05-18 16:00:00 17.4 6 Noroeste 27 Norte 0 -- -- 50
2019-05-18 15:00:00 16.9 6 Noroeste 26 Norte 0 -- -- 50
2019-05-18 14:00:00 17.1 6 Oeste 23 Norte 0 -- -- 49
2019-05-18 13:00:00 16.5 5 Oeste 22 Oeste 0 -- -- 47
2019-05-18 12:00:00 14.7 5 Oeste 26 Noroeste 0 -- -- 53
2019-05-18 11:00:00 14.7 7 Oeste 23 Noroeste 0 -- -- 52
2019-05-18 10:00:00 13.2 4 Oeste 13 Norte 0 -- -- 59
2019-05-18 09:00:00 10.1 5 Norte 12 Norte 0 -- -- 69
2019-05-18 08:00:00 8.3 5 Norte 14 Noroeste 0 -- -- 79
2019-05-18 07:00:00 7.6 0 Calma 10 Norte 0 -- -- 84
2019-05-18 06:00:00 8.1 3 Oeste 14 Noroeste 0 -- -- 80
2019-05-18 05:00:00 7.9 0 Calma 5 Oeste 0 -- -- 85
2019-05-18 04:00:00 8.9 2 Sudoeste 12 Oeste 0 -- -- 81
2019-05-18 03:00:00 8.8 0 Calma 12 Oeste 0 -- -- 83
2019-05-18 02:00:00 8.3 2 Oeste 13 Noroeste 0 -- -- 84
2019-05-18 01:00:00 8.3 3 Oeste 9 Noroeste 0 -- -- 83
2019-05-18 00:00:00 9 2 Sudoeste 12 Oeste 0 -- -- 81
2019-05-17 23:00:00 9.9 3 Oeste 15 Norte 0 -- -- 79
2019-05-17 22:00:00 10.8 4 Oeste 16 Oeste 0 -- -- 76
2019-05-17 21:00:00 11.7 6 Oeste 24 Oeste 0 -- -- 72
2019-05-17 20:00:00 12.6 6 Oeste 22 Oeste 0 -- -- 69
2019-05-17 19:00:00 12.6 5 Oeste 27 Noroeste 0 -- -- 74
2019-05-17 18:00:00 12.7 5 Oeste 24 Norte 0 -- -- 75
2019-05-17 17:00:00 14.2 8 Noroeste 34 Oeste 0 -- -- 65
2019-05-17 16:00:00 14.8 9 Oeste 28 Noroeste 0.2 -- -- 67
2019-05-17 15:00:00 15 9 Oeste 31 Noroeste 0 -- -- 65
2019-05-17 14:00:00 13.3 6 Oeste 26 Noroeste 0 -- -- 75
2019-05-17 13:00:00 11.2 8 Oeste 33 Sudoeste 0 -- -- 89
2019-05-17 12:00:00 11.1 9 Oeste 30 Noroeste 0 -- -- 85
2019-05-17 11:00:00 11.2 5 Oeste 24 Noroeste 0 -- -- 88
2019-05-17 10:00:00 10.4 4 Oeste 18 Noroeste 0.2 -- -- 92
2019-05-17 09:00:00 9.3 6 Oeste 16 Noroeste 1.8 -- -- 93
2019-05-17 08:00:00 9.2 4 Oeste 17 Noroeste 1.4 -- -- 93
2019-05-17 07:00:00 8.9 6 Oeste 24 Oeste 4.4 -- -- 90
2019-05-17 06:00:00 9.1 5 Noroeste 51 Norte 2.8 -- -- 91
2019-05-17 05:00:00 9.4 18 Norte 37 Norte 7.2 -- -- 91
2019-05-17 04:00:00 9.4 11 Oeste 33 Sudoeste 10.4 -- -- 92
2019-05-17 03:00:00 11.2 11 Oeste 40 Noroeste 10 -- -- 86
2019-05-17 02:00:00 13.9 5 Nordeste 20 Sudeste 0 -- -- 83
2019-05-17 01:00:00 15.1 6 Este 18 Nordeste 0.2 -- -- 78
2019-05-17 00:00:00 16.6 4 Este 10 Sudeste 0 -- -- 75
2019-05-16 23:00:00 16.5 4 Norte 16 Norte 0 -- -- 82
2019-05-16 22:00:00 17.8 5 Nordeste 30 Noroeste 0.6 -- -- 73
2019-05-16 21:00:00 21.5 4 Nordeste 13 Nordeste 0 -- -- 50
2019-05-16 20:00:00 22.7 3 Nordeste 17 Nordeste 0 -- -- 44
2019-05-16 19:00:00 24.2 6 Nordeste 24 Este 0 -- -- 38
2019-05-16 18:00:00 25.2 8 Este 21 Nordeste 0 -- -- 35
2019-05-16 17:00:00 25.7 7 Nordeste 23 Nordeste 0 -- -- 37
2019-05-16 16:00:00 25.2 8 Nordeste 23 Este 0 -- -- 37
2019-05-16 15:00:00 24.4 7 Este 21 Nordeste 0 -- -- 39
2019-05-16 14:00:00 23.1 7 Nordeste 22 Nordeste 0 -- -- 41
2019-05-16 13:00:00 22.4 5 Este 20 Norte 0 -- -- 43
2019-05-16 12:00:00 20.4 7 Nordeste 29 Nordeste 0 -- -- 43
2019-05-16 11:00:00 19 5 Este 16 Sudeste 0 -- -- 47
2019-05-16 10:00:00 16.5 6 Sudeste 15 Sudeste 0 -- -- 50
2019-05-16 09:00:00 11.6 3 Nordeste 7 Nordeste 0 -- -- 72
2019-05-16 08:00:00 9.2 3 Nordeste 7 Nordeste 0 -- -- 82
2019-05-16 07:00:00 8.3 3 Nordeste 6 Este 0 -- -- 82
2019-05-16 06:00:00 9.7 2 Nordeste 12 Nordeste 0 -- -- 78
2019-05-16 05:00:00 10.5 6 Nordeste 12 Nordeste 0 -- -- 73
2019-05-16 04:00:00 11 7 Nordeste 14 Nordeste 0 -- -- 70
2019-05-16 03:00:00 11.2 3 Sur 16 Nordeste 0 -- -- 69
2019-05-16 02:00:00 12.4 5 Este 24 Sudeste 0 -- -- 64
2019-05-16 01:00:00 13.9 7 Este 22 Este 0 -- -- 68
2019-05-16 00:00:00 15.7 5 Nordeste 19 Nordeste 0 -- -- 63
2019-05-15 23:00:00 17.4 5 Nordeste 15 Norte 0 -- -- 57
2019-05-15 22:00:00 19.6 3 Norte 18 Noroeste 0 -- -- 37
2019-05-15 21:00:00 21.3 4 Oeste 28 Noroeste 0 -- -- 36
2019-05-15 20:00:00 23.9 12 Norte 33 Norte 0 -- -- 31
2019-05-15 19:00:00 26.3 14 Norte 36 Noroeste 0 -- -- 27
2019-05-15 18:00:00 28.4 9 Noroeste 32 Norte 0 -- -- 24
2019-05-15 17:00:00 29.8 16 Norte 38 Noroeste 0 -- -- 20
2019-05-15 16:00:00 30.5 9 Norte 30 Norte 0 -- -- 23
2019-05-15 15:00:00 29.9 7 Oeste 23 Sudoeste 0 -- -- 22
2019-05-15 14:00:00 29.1 6 Oeste 19 Oeste 0 -- -- 25
2019-05-15 13:00:00 26.2 4 Oeste 19 Noroeste 0 -- -- 31
2019-05-15 12:00:00 23.3 4 Oeste 13 Sudoeste 0 -- -- 40
2019-05-15 11:00:00 20.8 4 Oeste 14 Noroeste 0 -- -- 42
2019-05-15 10:00:00 16.9 3 Oeste 12 Sudoeste 0 -- -- 57
2019-05-15 09:00:00 11 2 Oeste 6 Noroeste 0 -- -- 81
2019-05-15 08:00:00 8 0 Calma 2 Sudoeste 0 -- -- 92
2019-05-15 07:00:00 7.6 0 Calma 3 Este 0 -- -- 89
2019-05-15 06:00:00 8.3 0 Calma 2 Nordeste 0 -- -- 87
2019-05-15 05:00:00 9.4 0 Calma 4 Sudeste 0 -- -- 85
2019-05-15 04:00:00 10.7 0 Calma 10 Norte 0 -- -- 80
2019-05-15 03:00:00 11.5 3 Oeste 9 Norte 0 -- -- 74
2019-05-15 02:00:00 13.5 0 Calma 9 Noroeste 0 -- -- 69
2019-05-15 01:00:00 15 2 Sudoeste 10 Sudoeste 0 -- -- 62
2019-05-15 00:00:00 16.6 3 Sudoeste 15 Oeste 0 -- -- 58
2019-05-14 23:00:00 18.5 3 Oeste 9 Oeste 0 -- -- 53
2019-05-14 22:00:00 21 2 Oeste 7 Noroeste 0 -- -- 48
2019-05-14 21:00:00 24.2 2 Noroeste 10 Norte 0 -- -- 43
2019-05-14 20:00:00 26 3 Oeste 12 Noroeste 0 -- -- 32
2019-05-14 19:00:00 26.2 3 Oeste 10 Noroeste 0 -- -- 32
2019-05-14 18:00:00 26.8 3 Oeste 13 Oeste 0 -- -- 28
2019-05-14 17:00:00 27.2 4 Oeste 15 Norte 0 -- -- 29
2019-05-14 16:00:00 26.2 4 Oeste 17 Sudoeste 0 -- -- 30
2019-05-14 15:00:00 24.9 5 Noroeste 13 Norte 0 -- -- 33
2019-05-14 14:00:00 23.7 5 Sudoeste 12 Sudoeste 0 -- -- 37
2019-05-14 13:00:00 22.3 4 Sudoeste 12 Sudoeste 0 -- -- 44
2019-05-14 12:00:00 20.4 3 Sudoeste 12 Sudoeste 0 -- -- 48
2019-05-14 11:00:00 18.2 3 Sudoeste 5 Este 0 -- -- 53
2019-05-14 10:00:00 14.1 0 Calma 4 Noroeste 0 -- -- 60
2019-05-14 09:00:00 9.1 3 Sudoeste 4 Sudoeste 0 -- -- 81
2019-05-14 08:00:00 6 0 Calma 2 Sudoeste 0 -- -- 89
2019-05-14 07:00:00 5.7 0 Calma 4 Norte 0 -- -- 86
2019-05-14 06:00:00 6.2 0 Calma 4 Norte 0 -- -- 87
2019-05-14 05:00:00 6.8 0 Calma 5 Nordeste 0 -- -- 81
2019-05-14 04:00:00 7.3 2 Nordeste 6 Nordeste 0 -- -- 79
2019-05-14 03:00:00 8.3 2 Nordeste 8 Norte 0 -- -- 75
2019-05-14 02:00:00 10.1 0 Calma 4 Sudoeste 0 -- -- 67
2019-05-14 01:00:00 12.2 0 Calma 9 Noroeste 0 -- -- 60
2019-05-14 00:00:00 13.9 3 Noroeste 15 Oeste 0 -- -- 52
2019-05-13 23:00:00 15.2 4 Oeste 19 Noroeste 0 -- -- 48
2019-05-13 22:00:00 17.1 5 Sudoeste 15 Oeste 0 -- -- 41
2019-05-13 21:00:00 19.7 5 Oeste 19 Sur 0 -- -- 32
2019-05-13 20:00:00 22.2 5 Oeste 24 Noroeste 0 -- -- 31
2019-05-13 19:00:00 24 6 Oeste 24 Oeste 0 -- -- 27
2019-05-13 18:00:00 25.5 7 Oeste 24 Noroeste 0 -- -- 22
2019-05-13 17:00:00 27 7 Oeste 23 Oeste 0 -- -- 20
2019-05-13 16:00:00 27.1 6 Oeste 21 Noroeste 0 -- -- 19
2019-05-13 15:00:00 26.5 6 Oeste 23 Oeste 0 -- -- 19
2019-05-13 14:00:00 25.5 7 Oeste 25 Sudoeste 0 -- -- 20
2019-05-13 13:00:00 24 6 Oeste 19 Oeste 0 -- -- 26
2019-05-13 12:00:00 21.3 4 Oeste 19 Norte 0 -- -- 30
2019-05-13 11:00:00 18.9 5 Oeste 18 Noroeste 0 -- -- 37
2019-05-13 10:00:00 16.3 4 Oeste 18 Noroeste 0 -- -- 43
2019-05-13 09:00:00 11.7 5 Oeste 16 Oeste 0 -- -- 59
2019-05-13 08:00:00 8.4 2 Nordeste 13 Oeste 0 -- -- 71
2019-05-13 07:00:00 8.6 2 Sudoeste 15 Noroeste 0 -- -- 71
2019-05-13 06:00:00 9.5 2 Noroeste 15 Noroeste 0 -- -- 68
2019-05-13 05:00:00 10.5 3 Oeste 15 Oeste 0 -- -- 66
2019-05-13 04:00:00 11.4 4 Oeste 16 Noroeste 0 -- -- 62
2019-05-13 03:00:00 12 5 Oeste 17 Oeste 0 -- -- 61
2019-05-13 02:00:00 12.4 5 Oeste 23 Norte 0 -- -- 60
2019-05-13 01:00:00 13.1 6 Oeste 21 Noroeste 0 -- -- 57
2019-05-13 00:00:00 13.3 5 Oeste 21 Norte 0 -- -- 58
2019-05-12 23:00:00 15.2 6 Oeste 24 Noroeste 0 -- -- 47
2019-05-12 22:00:00 16.1 6 Oeste 25 Oeste 0 -- -- 45
2019-05-12 21:00:00 17.7 6 Oeste 31 Oeste 0 -- -- 41
2019-05-12 20:00:00 19.9 6 Oeste 26 Norte 0 -- -- 39
2019-05-12 19:00:00 21.4 7 Norte 32 Norte 0 -- -- 34
2019-05-12 18:00:00 23.2 10 Norte 33 Norte 0 -- -- 31
2019-05-12 17:00:00 24.4 9 Oeste 27 Noroeste 0 -- -- 30
2019-05-12 16:00:00 24.8 9 Norte 35 Noroeste 0 -- -- 31
2019-05-12 15:00:00 24.2 6 Sudoeste 24 Oeste 0 -- -- 28
2019-05-12 14:00:00 22.8 7 Oeste 24 Oeste 0 -- -- 30
2019-05-12 13:00:00 21.6 7 Oeste 24 Oeste 0 -- -- 36
2019-05-12 12:00:00 19.4 7 Oeste 24 Norte 0 -- -- 38
2019-05-12 11:00:00 17.6 7 Noroeste 25 Sudoeste 0 -- -- 44
2019-05-12 10:00:00 14.3 6 Oeste 23 Oeste 0 -- -- 57
2019-05-12 09:00:00 10.8 8 Oeste 26 Oeste 0 -- -- 68
2019-05-12 08:00:00 9.3 6 Oeste 20 Sudoeste 0 -- -- 72
2019-05-12 07:00:00 8.7 6 Oeste 35 Oeste 0 -- -- 75
2019-05-12 06:00:00 9 5 Oeste 23 Oeste 0 -- -- 75
2019-05-12 05:00:00 9.3 6 Oeste 25 Noroeste 0 -- -- 74
2019-05-12 04:00:00 9.8 7 Oeste 21 Noroeste 0 -- -- 72
2019-05-12 03:00:00 10.3 6 Oeste 18 Oeste 0 -- -- 72
2019-05-12 02:00:00 10.7 5 Oeste 17 Noroeste 0 -- -- 69
2019-05-12 01:00:00 10.9 4 Oeste 17 Noroeste 0 -- -- 68
2019-05-12 00:00:00 11.4 4 Oeste 14 Oeste 0 -- -- 65
2019-05-11 23:00:00 12.6 3 Oeste 18 Noroeste 0 -- -- 59
2019-05-11 22:00:00 14 6 Norte 25 Norte 0 -- -- 53
2019-05-11 21:00:00 15.5 6 Norte 27 Noroeste 0 -- -- 48
2019-05-11 20:00:00 17.2 11 Norte 35 Noroeste 0 -- -- 42
2019-05-11 19:00:00 18.4 14 Norte 37 Norte 0 -- -- 39
2019-05-11 18:00:00 20.3 9 Norte 41 Norte 0 -- -- 41
2019-05-11 17:00:00 21.3 12 Norte 39 Norte 0 -- -- 37
2019-05-11 16:00:00 21.4 9 Noroeste 32 Norte 0 -- -- 40
2019-05-11 15:00:00 21.1 13 Norte 35 Noroeste 0 -- -- 37
2019-05-11 14:00:00 21 11 Norte 34 Noroeste 0 -- -- 41
2019-05-11 13:00:00 20 13 Norte 34 Noroeste 0 -- -- 42
2019-05-11 12:00:00 19.3 11 Noroeste 35 Noroeste 0 -- -- 49
2019-05-11 11:00:00 18.4 6 Oeste 27 Oeste 0 -- -- 57
2019-05-11 10:00:00 17.6 6 Noroeste 27 Norte 0 -- -- 60
2019-05-11 09:00:00 14.8 5 Oeste 21 Noroeste 0 -- -- 71
2019-05-11 08:00:00 13 4 Oeste 16 Sudoeste 0 -- -- 81
2019-05-11 07:00:00 12.7 4 Oeste 12 Norte 0 -- -- 84
2019-05-11 06:00:00 12.2 0 Calma 8 Oeste 0 -- -- 86
2019-05-11 05:00:00 13.1 3 Sudoeste 10 Noroeste 0 -- -- 82
2019-05-11 04:00:00 13.9 3 Oeste 12 Noroeste 0 -- -- 80
2019-05-11 03:00:00 14.1 3 Sudoeste 12 Sudoeste 0 -- -- 82
2019-05-11 02:00:00 15 3 Sur 9 Sudoeste 0 -- -- 82
2019-05-11 01:00:00 16.5 3 Noroeste 14 Norte 0 -- -- 72
2019-05-11 00:00:00 17.5 2 Norte 8 Norte 0 -- -- 71
2019-05-10 23:00:00 19.5 2 Norte 10 Norte 0 -- -- 68
2019-05-10 22:00:00 22.2 0 Calma 11 Nordeste 0 -- -- 57
2019-05-10 21:00:00 23.7 5 Norte 13 Noroeste 0 -- -- 49
2019-05-10 20:00:00 25.1 5 Norte 12 Norte 0 -- -- 50
2019-05-10 19:00:00 26.2 3 Norte 10 Noroeste 0 -- -- 45
2019-05-10 18:00:00 27.7 4 Oeste 20 Norte 0 -- -- 42
2019-05-10 17:00:00 27.6 6 Sudoeste 14 Sudoeste 0 -- -- 45
2019-05-10 16:00:00 26.7 4 Sudoeste 12 Sudoeste 0 -- -- 46
2019-05-10 15:00:00 25.9 3 Sur 8 Sudoeste 0 -- -- 46
2019-05-10 14:00:00 25 3 Sudoeste 13 Sudoeste 0 -- -- 51
2019-05-10 13:00:00 24.3 5 Sudoeste 14 Sudoeste 0 -- -- 54
2019-05-10 12:00:00 22.8 3 Sur 9 Oeste 0 -- -- 57
2019-05-10 11:00:00 20.3 4 Este 17 Este 0 -- -- 64
2019-05-10 10:00:00 17.7 4 Nordeste 10 Nordeste 0 -- -- 76
2019-05-10 09:00:00 15.3 2 Nordeste 7 Sudoeste 0 -- -- 81
2019-05-10 08:00:00 13.5 3 Norte 8 Nordeste 0 -- -- 86
2019-05-10 07:00:00 12.6 0 Calma 5 Norte 0 -- -- 89
2019-05-10 06:00:00 12.3 0 Calma 3 Norte 0 -- -- 89
2019-05-10 05:00:00 12.7 0 Calma 4 Norte 0 -- -- 87
2019-05-10 04:00:00 13.3 2 Nordeste 5 Nordeste 0 -- -- 84
2019-05-10 03:00:00 14.1 2 Nordeste 14 Nordeste 0 -- -- 81
2019-05-10 02:00:00 14.9 5 Nordeste 12 Este 0 -- -- 76
2019-05-10 01:00:00 15.3 4 Nordeste 12 Nordeste 0 -- -- 74
2019-05-10 00:00:00 15.7 3 Este 11 Este 0 -- -- 68
2019-05-09 23:00:00 16.9 4 Este 13 Este 0 -- -- 54
2019-05-09 22:00:00 17.7 2 Nordeste 8 Nordeste 0 -- -- 60
2019-05-09 21:00:00 19.6 3 Nordeste 8 Nordeste 0 -- -- 39
2019-05-09 20:00:00 21 2 Este 9 Este 0 -- -- 39
2019-05-09 19:00:00 21.6 4 Norte 10 Norte 0 -- -- 32
2019-05-09 18:00:00 22.5 3 Noroeste 13 Sudoeste 0 -- -- 31
2019-05-09 17:00:00 21.7 3 Sur 11 Sur 0 -- -- 35
2019-05-09 16:00:00 21.9 3 Norte 10 Norte 0 -- -- 34
2019-05-09 15:00:00 21.6 3 Este 15 Este 0 -- -- 34
2019-05-09 14:00:00 21.6 3 Oeste 18 Norte 0 -- -- 36
2019-05-09 13:00:00 20.2 3 Oeste 17 Sudoeste 0 -- -- 39
2019-05-09 12:00:00 19 5 Oeste 15 Norte 0 -- -- 39
2019-05-09 11:00:00 17.4 4 Oeste 13 Noroeste 0 -- -- 46
2019-05-09 10:00:00 15.4 4 Oeste 14 Oeste 0 -- -- 50
2019-05-09 09:00:00 11.1 3 Oeste 9 Sudoeste 0 -- -- 66
2019-05-09 08:00:00 8.1 3 Sudoeste 5 Sudoeste 0 -- -- 78
2019-05-09 07:00:00 8.4 0 Calma 8 Norte 0 -- -- 74
2019-05-09 06:00:00 9.6 0 Calma 10 Noroeste 0 -- -- 70
2019-05-09 05:00:00 10 2 Sur 10 Noroeste 0 -- -- 66
2019-05-09 04:00:00 9.4 0 Calma 3 Sudoeste 0 -- -- 67
2019-05-09 03:00:00 10.6 0 Calma 6 Nordeste 0 -- -- 65
2019-05-09 02:00:00 12.5 2 Este 11 Norte 0 -- -- 54
2019-05-09 01:00:00 13.7 3 Oeste 17 Oeste 0 -- -- 46
2019-05-09 00:00:00 14.5 0 Calma 10 Oeste 0 -- -- 48
2019-05-08 23:00:00 16.5 2 Sudoeste 10 Oeste 0 -- -- 42
2019-05-08 22:00:00 18.5 4 Oeste 21 Sudoeste 0 -- -- 36
2019-05-08 21:00:00 20.8 6 Sudoeste 34 Sudoeste 0 -- -- 29
2019-05-08 20:00:00 22.5 10 Sudoeste 37 Sudoeste 0 -- -- 25
2019-05-08 19:00:00 23 12 Sudoeste 36 Sudoeste 0 -- -- 24
2019-05-08 18:00:00 23.7 6 Sudoeste 31 Sudoeste 0 -- -- 35
2019-05-08 17:00:00 23.6 10 Sudoeste 40 Sudoeste 0 -- -- 44
2019-05-08 16:00:00 24.2 16 Sudoeste 47 Sudoeste 0 -- -- 47
2019-05-08 15:00:00 23.1 15 Sudoeste 38 Sudoeste 0 -- -- 51
2019-05-08 14:00:00 21.7 10 Sudoeste 34 Sudoeste 0 -- -- 58
2019-05-08 13:00:00 19.6 5 Sur 17 Este 0 -- -- 66
2019-05-08 12:00:00 18.7 6 Este 19 Nordeste 0 -- -- 73
2019-05-08 11:00:00 16.5 5 Este 21 Este 0 -- -- 82
2019-05-08 10:00:00 15.3 5 Nordeste 18 Sudeste 0 -- -- 87
2019-05-08 09:00:00 13.7 5 Este 19 Nordeste 0 -- -- 90
2019-05-08 08:00:00 13.4 5 Este 18 Este 0 -- -- 90
2019-05-08 07:00:00 13.5 6 Nordeste 20 Nordeste 0.4 -- -- 90
2019-05-08 06:00:00 13.9 5 Este 16 Sudeste 0.2 -- -- 87
2019-05-08 05:00:00 14.2 5 Este 20 Este 0 -- -- 85
2019-05-08 04:00:00 14.3 5 Este 21 Nordeste 0 -- -- 85
2019-05-08 03:00:00 14.8 8 Nordeste 23 Sudeste 0 -- -- 83
2019-05-08 02:00:00 15.8 7 Este 22 Nordeste 0 -- -- 79
2019-05-08 01:00:00 17.3 6 Nordeste 21 Nordeste 0 -- -- 72
2019-05-08 00:00:00 19 5 Este 15 Nordeste 0 -- -- 65
2019-05-07 23:00:00 19.7 4 Nordeste 13 Este 0 -- -- 57
2019-05-07 22:00:00 20 4 Nordeste 17 Nordeste 0 -- -- 55
2019-05-07 21:00:00 20.8 3 Nordeste 14 Nordeste 0 -- -- 51
2019-05-07 20:00:00 22 4 Nordeste 16 Nordeste 0 -- -- 47
2019-05-07 19:00:00 23.3 4 Este 20 Este 0 -- -- 44
2019-05-07 18:00:00 24.1 5 Este 15 Nordeste 0 -- -- 41
2019-05-07 17:00:00 24.6 6 Nordeste 21 Nordeste 0 -- -- 41
2019-05-07 16:00:00 24.6 6 Nordeste 18 Este 0 -- -- 40
2019-05-07 15:00:00 24.3 9 Nordeste 23 Este 0 -- -- 39
2019-05-07 14:00:00 22 6 Este 24 Nordeste 0 -- -- 44
2019-05-07 13:00:00 21.9 7 Este 24 Norte 0 -- -- 41
2019-05-07 12:00:00 19.9 7 Nordeste 26 Este 0 -- -- 48
2019-05-07 11:00:00 17 8 Nordeste 19 Este 0 -- -- 51
2019-05-07 10:00:00 14.7 5 Nordeste 14 Nordeste 0 -- -- 57
2019-05-07 09:00:00 11.9 4 Este 10 Sudeste 0 -- -- 64
2019-05-07 08:00:00 9.7 3 Nordeste 10 Nordeste 0 -- -- 69
2019-05-07 07:00:00 8.2 0 Calma 11 Nordeste 0 -- -- 74
2019-05-07 06:00:00 9 4 Nordeste 17 Nordeste 0 -- -- 71
2019-05-07 05:00:00 10.2 5 Nordeste 15 Este 0 -- -- 63
2019-05-07 04:00:00 10.8 5 Nordeste 16 Este 0 -- -- 60
2019-05-07 03:00:00 10.2 4 Nordeste 15 Nordeste 0 -- -- 57
2019-05-07 02:00:00 9.3 4 Nordeste 6 Nordeste 0 -- -- 61
2019-05-07 01:00:00 10.2 3 Nordeste 6 Este 0 -- -- 64
2019-05-07 00:00:00 11.6 3 Nordeste 6 Nordeste 0 -- -- 58
2019-05-06 23:00:00 13.8 0 Calma 2 Nordeste 0 -- -- 56
2019-05-06 22:00:00 16.4 0 Calma 3 Sur 0 -- -- 47
2019-05-06 21:00:00 19.9 0 Calma 8 Noroeste 0 -- -- 41
2019-05-06 20:00:00 21.9 2 Sudoeste 13 Sudoeste 0 -- -- 27
2019-05-06 19:00:00 22.4 3 Oeste 10 Noroeste 0 -- -- 23
2019-05-06 18:00:00 22.5 2 Oeste 11 Noroeste 0 -- -- 26
2019-05-06 17:00:00 23.4 5 Sudoeste 16 Norte 0 -- -- 22
2019-05-06 16:00:00 22.4 4 Sudoeste 12 Sur 0 -- -- 30
2019-05-06 15:00:00 20.5 3 Sudeste 9 Norte 0 -- -- 25
2019-05-06 14:00:00 18.6 3 Sudoeste 12 Este 0 -- -- 26
2019-05-06 13:00:00 17.4 3 Sudeste 9 Sudoeste 0 -- -- 35
2019-05-06 12:00:00 15 4 Sudoeste 10 Sudoeste 0 -- -- 42
2019-05-06 11:00:00 12.2 4 Sudoeste 10 Norte 0 -- -- 52
2019-05-06 10:00:00 8.2 4 Norte 10 Norte 0 -- -- 64
2019-05-06 09:00:00 4.3 3 Noroeste 6 Oeste 0 -- -- 79
2019-05-06 08:00:00 2.4 2 Oeste 6 Sur 0 -- -- 87
2019-05-06 07:00:00 2.5 0 Calma 5 Oeste 0 -- -- 85
2019-05-06 06:00:00 3.1 0 Calma 5 Noroeste 0 -- -- 85
2019-05-06 05:00:00 3.8 0 Calma 5 Nordeste 0 -- -- 83
2019-05-06 04:00:00 5.2 2 Nordeste 9 Sudoeste 0 -- -- 75
2019-05-06 03:00:00 5.5 3 Sudoeste 10 Sudoeste 0 -- -- 75
2019-05-06 02:00:00 6.3 3 Oeste 12 Noroeste 0 -- -- 72
2019-05-06 01:00:00 7 4 Oeste 15 Noroeste 0 -- -- 67
2019-05-06 00:00:00 8.2 4 Oeste 16 Oeste 0 -- -- 56
2019-05-05 23:00:00 9 3 Oeste 10 Noroeste 0 -- -- 51
2019-05-05 22:00:00 10.4 4 Oeste 22 Norte 0 -- -- 47
2019-05-05 21:00:00 12.1 6 Oeste 26 Oeste 0 -- -- 42
2019-05-05 20:00:00 13.9 7 Noroeste 30 Oeste 0 -- -- 36
2019-05-05 19:00:00 15.2 8 Oeste 30 Noroeste 0 -- -- 31
2019-05-05 18:00:00 16.9 8 Oeste 32 Noroeste 0 -- -- 30
2019-05-05 17:00:00 17.7 12 Norte 36 Noroeste 0 -- -- 24
2019-05-05 16:00:00 18.3 8 Oeste 34 Oeste 0 -- -- 24
2019-05-05 15:00:00 17.4 9 Oeste 34 Oeste 0 -- -- 26
2019-05-05 14:00:00 17.1 9 Oeste 32 Oeste 0 -- -- 28
2019-05-05 13:00:00 16.2 9 Oeste 26 Norte 0 -- -- 28
2019-05-05 12:00:00 14.3 9 Oeste 33 Sur 0 -- -- 31
2019-05-05 11:00:00 11.8 10 Oeste 30 Noroeste 0 -- -- 37
2019-05-05 10:00:00 8.9 11 Oeste 29 Oeste 0 -- -- 54
2019-05-05 09:00:00 6 10 Oeste 32 Oeste 0 -- -- 64
2019-05-05 08:00:00 4.6 8 Oeste 27 Noroeste 0 -- -- 69
2019-05-05 07:00:00 4.6 9 Oeste 28 Oeste 0 -- -- 69
2019-05-05 06:00:00 5.6 9 Oeste 30 Oeste 0 -- -- 68
2019-05-05 05:00:00 6.6 12 Oeste 30 Sudoeste 0 -- -- 70
2019-05-05 04:00:00 7.7 6 Oeste 24 Sudoeste 0 -- -- 64
2019-05-05 03:00:00 8.8 6 Oeste 25 Noroeste 0 -- -- 60
2019-05-05 02:00:00 9.2 8 Oeste 28 Oeste 0 -- -- 71
2019-05-05 01:00:00 10 6 Oeste 27 Sudoeste 0 -- -- 66
2019-05-05 00:00:00 10.8 10 Norte 35 Noroeste 0 -- -- 65
2019-05-04 23:00:00 12 7 Oeste 27 Oeste 0 -- -- 67
2019-05-04 22:00:00 13 5 Oeste 20 Oeste 0 -- -- 63
2019-05-04 21:00:00 13.6 6 Noroeste 27 Norte 0 -- -- 54
2019-05-04 20:00:00 15.1 16 Norte 40 Noroeste 0 -- -- 48
2019-05-04 19:00:00 16.5 9 Norte 39 Norte 0 -- -- 43
2019-05-04 18:00:00 18.1 10 Norte 32 Noroeste 0 -- -- 40
2019-05-04 17:00:00 18.9 9 Norte 42 Noroeste 0 -- -- 39
2019-05-04 16:00:00 18.6 10 Noroeste 30 Norte 0 -- -- 42
2019-05-04 15:00:00 17.8 9 Oeste 30 Noroeste 0 -- -- 46
2019-05-04 14:00:00 18.2 10 Noroeste 33 Norte 0 -- -- 41
2019-05-04 13:00:00 17.8 10 Norte 32 Norte 0 -- -- 39
2019-05-04 12:00:00 16.5 8 Noroeste 28 Norte 0 -- -- 48
2019-05-04 11:00:00 15.2 8 Oeste 31 Oeste 0 -- -- 50
2019-05-04 10:00:00 13.5 7 Noroeste 29 Noroeste 0 -- -- 56
2019-05-04 09:00:00 10.1 6 Oeste 28 Oeste 0 -- -- 72
2019-05-04 08:00:00 8 5 Oeste 17 Norte 0 -- -- 81
2019-05-04 07:00:00 7.4 3 Oeste 24 Oeste 0 -- -- 82
2019-05-04 06:00:00 7.4 7 Oeste 20 Oeste 0 -- -- 82
2019-05-04 05:00:00 7.6 4 Oeste 14 Sudoeste 0 -- -- 80
2019-05-04 04:00:00 8.1 3 Oeste 17 Noroeste 0 -- -- 79
2019-05-04 03:00:00 8.5 4 Oeste 19 Noroeste 0 -- -- 78
2019-05-04 02:00:00 9.1 4 Oeste 21 Noroeste 0 -- -- 76
2019-05-04 01:00:00 9.4 5 Oeste 22 Noroeste 0 -- -- 74
2019-05-04 00:00:00 9.9 5 Oeste 29 Oeste 0 -- -- 71
2019-05-03 23:00:00 10.1 6 Sur 29 Oeste 0 -- -- 68
2019-05-03 22:00:00 10.9 7 Noroeste 31 Norte 0 -- -- 64
2019-05-03 21:00:00 11.9 7 Norte 30 Oeste 0 -- -- 60
2019-05-03 20:00:00 13.4 10 Noroeste 39 Noroeste 0 -- -- 57
2019-05-03 19:00:00 15 8 Norte 36 Norte 0 -- -- 53
2019-05-03 18:00:00 16.5 13 Norte 33 Noroeste 0 -- -- 47
2019-05-03 17:00:00 17.4 10 Noroeste 30 Norte 0 -- -- 46
2019-05-03 16:00:00 17.3 8 Noroeste 33 Norte 0 -- -- 48
2019-05-03 15:00:00 16.2 8 Noroeste 31 Oeste 0 -- -- 52
2019-05-03 14:00:00 15.1 7 Noroeste 28 Noroeste 0 -- -- 58
2019-05-03 13:00:00 12 8 Oeste 23 Oeste 0 -- -- 70
2019-05-03 12:00:00 9.7 6 Oeste 22 Oeste 0 -- -- 77
2019-05-03 11:00:00 9.1 5 Oeste 15 Norte 0.4 -- -- 84
2019-05-03 10:00:00 10.3 7 Norte 30 Noroeste 0 -- -- 71
2019-05-03 09:00:00 10.2 4 Sudoeste 17 Oeste 0 -- -- 72
2019-05-03 08:00:00 8.9 5 Oeste 17 Oeste 0 -- -- 79
2019-05-03 07:00:00 7.7 4 Oeste 17 Oeste 0 -- -- 80
2019-05-03 06:00:00 8 3 Oeste 16 Noroeste 0 -- -- 79
2019-05-03 05:00:00 8.5 4 Oeste 15 Oeste 0 -- -- 76
2019-05-03 04:00:00 8.5 3 Oeste 14 Oeste 0 -- -- 77
2019-05-03 03:00:00 9.2 3 Oeste 12 Oeste 0 -- -- 75
2019-05-03 02:00:00 9.7 4 Oeste 19 Oeste 0 -- -- 72
2019-05-03 01:00:00 10.1 4 Oeste 15 Oeste 0 -- -- 69
2019-05-03 00:00:00 10.5 4 Oeste 19 Noroeste 0 -- -- 65
2019-05-02 23:00:00 11.1 4 Oeste 16 Noroeste 0 -- -- 61
2019-05-02 22:00:00 12.3 4 Oeste 17 Noroeste 0 -- -- 56
2019-05-02 21:00:00 14.2 5 Oeste 23 Noroeste 0 -- -- 55
2019-05-02 20:00:00 16.5 5 Sudoeste 23 Noroeste 0 -- -- 51
2019-05-02 19:00:00 17.8 9 Norte 27 Noroeste 0 -- -- 48
2019-05-02 18:00:00 20 6 Oeste 28 Sudoeste 0 -- -- 43
2019-05-02 17:00:00 21.2 5 Oeste 25 Noroeste 0 -- -- 43
2019-05-02 16:00:00 21.2 7 Oeste 25 Oeste 0 -- -- 43
2019-05-02 15:00:00 21.6 8 Oeste 29 Noroeste 0 -- -- 42
2019-05-02 14:00:00 21.5 6 Oeste 21 Oeste 0 -- -- 43
2019-05-02 13:00:00 20.5 7 Oeste 22 Oeste 0 -- -- 46
2019-05-02 12:00:00 19.1 6 Oeste 23 Oeste 0 -- -- 49
2019-05-02 11:00:00 17.1 6 Oeste 22 Oeste 0 -- -- 56
2019-05-02 10:00:00 14.6 5 Oeste 23 Oeste 0 -- -- 63
2019-05-02 09:00:00 11.5 6 Oeste 20 Noroeste 0 -- -- 74
2019-05-02 08:00:00 10.3 5 Oeste 17 Noroeste 0 -- -- 78
2019-05-02 07:00:00 10.2 5 Oeste 17 Noroeste 0 -- -- 78
2019-05-02 06:00:00 10.3 5 Oeste 18 Noroeste 0 -- -- 76
2019-05-02 05:00:00 11 5 Oeste 17 Noroeste 0 -- -- 73
2019-05-02 04:00:00 11.3 5 Oeste 19 Noroeste 0 -- -- 73
2019-05-02 03:00:00 11.2 4 Oeste 18 Oeste 0 -- -- 74
2019-05-02 02:00:00 12 4 Oeste 14 Noroeste 0 -- -- 71
2019-05-02 01:00:00 13 4 Oeste 16 Oeste 0 -- -- 68
2019-05-02 00:00:00 13.8 4 Oeste 19 Oeste 0 -- -- 67
2019-05-01 23:00:00 14.9 4 Oeste 19 Oeste 0 -- -- 63
2019-05-01 22:00:00 16.5 5 Oeste 16 Noroeste 0 -- -- 59
2019-05-01 21:00:00 18.9 4 Norte 23 Noroeste 0 -- -- 49
2019-05-01 20:00:00 21.2 8 Norte 23 Noroeste 0 -- -- 46
2019-05-01 19:00:00 23.5 3 Oeste 12 Oeste 0 -- -- 41
2019-05-01 18:00:00 24.3 4 Sudoeste 13 Sudoeste 0 -- -- 34
2019-05-01 17:00:00 24.6 4 Oeste 15 Norte 0 -- -- 40
2019-05-01 16:00:00 24.1 4 Oeste 15 Noroeste 0 -- -- 41
2019-05-01 15:00:00 23 3 Norte 12 Norte 0 -- -- 45
2019-05-01 14:00:00 21.5 5 Nordeste 15 Nordeste 0 -- -- 47
2019-05-01 13:00:00 19.9 6 Norte 14 Este 0 -- -- 55
2019-05-01 12:00:00 17 5 Nordeste 15 Norte 0 -- -- 66
2019-05-01 11:00:00 14.5 4 Nordeste 9 Nordeste 0 -- -- 74
2019-05-01 10:00:00 11.3 2 Sudoeste 6 Sudoeste 0 -- -- 83
2019-05-01 09:00:00 8.6 3 Sudoeste 6 Sudoeste 0 -- -- 87
2019-05-01 08:00:00 6.6 0 Calma 5 Oeste 0 -- -- 90
2019-05-01 07:00:00 4.8 0 Calma 5 Nordeste 0 -- -- 90
2019-05-01 06:00:00 5.1 2 Nordeste 5 Nordeste 0 -- -- 87
2019-05-01 05:00:00 6.1 0 Calma 5 Nordeste 0 -- -- 83
2019-05-01 04:00:00 7.1 0 Calma 6 Nordeste 0 -- -- 80
2019-05-01 03:00:00 9.4 2 Este 6 Norte 0 -- -- 75
2019-05-01 02:00:00 10.8 2 Norte 11 Oeste 0 -- -- 70
2019-05-01 01:00:00 12.1 4 Oeste 11 Sudoeste 0 -- -- 65
2019-05-01 00:00:00 12.4 5 Sudoeste 11 Sudoeste 0 -- -- 64
2019-04-30 23:00:00 13.9 2 Sur 14 Sudoeste 0 -- -- 61
2019-04-30 22:00:00 16.3 4 Sudoeste 11 Norte 0 -- -- 45
2019-04-30 21:00:00 18.8 4 Oeste 18 Norte 0 -- -- 39
2019-04-30 20:00:00 21.3 5 Norte 20 Norte 0 -- -- 32
2019-04-30 19:00:00 22.8 5 Norte 27 Norte 0 -- -- 25
2019-04-30 18:00:00 24.4 9 Norte 26 Norte 0 -- -- 23
2019-04-30 17:00:00 25.8 6 Noroeste 22 Norte 0 -- -- 21
2019-04-30 16:00:00 25.1 6 Noroeste 17 Norte 0 -- -- 23
2019-04-30 15:00:00 23.9 5 Oeste 15 Sur 0 -- -- 37
2019-04-30 14:00:00 22.1 3 Norte 11 Sudoeste 0 -- -- 41
2019-04-30 13:00:00 20.1 6 Norte 14 Noroeste 0 -- -- 48
2019-04-30 12:00:00 18.7 6 Norte 13 Nordeste 0 -- -- 53
2019-04-30 11:00:00 16.4 3 Oeste 13 Sudoeste 0 -- -- 62
2019-04-30 10:00:00 12.5 2 Sur 5 Sudoeste 0 -- -- 73
2019-04-30 09:00:00 7.3 0 Calma 4 Este 0 -- -- 88
2019-04-30 08:00:00 5.2 0 Calma 6 Norte 0 -- -- 90
2019-04-30 07:00:00 5.7 0 Calma 3 Nordeste 0 -- -- 88
2019-04-30 06:00:00 6.7 0 Calma 5 Norte 0 -- -- 82
2019-04-30 05:00:00 8.3 0 Calma 9 Norte 0 -- -- 81
2019-04-30 04:00:00 10 4 Norte 8 Norte 0 -- -- 79
2019-04-30 03:00:00 10.8 0 Calma 7 Oeste 0 -- -- 79
2019-04-30 02:00:00 11.9 2 Sur 14 Noroeste 0 -- -- 72
2019-04-30 01:00:00 13.7 6 Oeste 16 Oeste 0 -- -- 62
2019-04-30 00:00:00 13.4 3 Oeste 10 Noroeste 0 -- -- 64
2019-04-29 23:00:00 14 2 Sudoeste 6 Sudoeste 0 -- -- 63
2019-04-29 22:00:00 16.8 0 Calma 14 Noroeste 0 -- -- 54
2019-04-29 21:00:00 19.7 6 Norte 15 Nordeste 0 -- -- 45
2019-04-29 20:00:00 22.2 6 Norte 18 Norte 0 -- -- 36
2019-04-29 19:00:00 23.6 9 Norte 24 Noroeste 0 -- -- 32
2019-04-29 18:00:00 24.6 4 Oeste 19 Noroeste 0 -- -- 33
2019-04-29 17:00:00 24.7 4 Oeste 15 Sudoeste 0 -- -- 36
2019-04-29 16:00:00 23.7 9 Sudoeste 19 Sudoeste 0 -- -- 41
2019-04-29 15:00:00 22.1 5 Sur 13 Sudoeste 0 -- -- 51
2019-04-29 14:00:00 20.4 3 Oeste 12 Noroeste 0 -- -- 49
2019-04-29 13:00:00 18.8 4 Sudoeste 14 Norte 0 -- -- 54
2019-04-29 12:00:00 17.7 4 Oeste 9 Sudoeste 0 -- -- 60
2019-04-29 11:00:00 15.1 4 Norte 7 Norte 0 -- -- 64
2019-04-29 10:00:00 12 3 Sudoeste 5 Oeste 0 -- -- 74
2019-04-29 09:00:00 7.3 3 Sudoeste 5 Sudoeste 0 -- -- 87
2019-04-29 08:00:00 5 0 Calma 5 Nordeste 0 -- -- 90
2019-04-29 07:00:00 5.6 0 Calma 6 Nordeste 0 -- -- 86
2019-04-29 06:00:00 7.3 3 Nordeste 12 Nordeste 0 -- -- 83
2019-04-29 05:00:00 7.7 3 Norte 9 Noroeste 0 -- -- 83
2019-04-29 04:00:00 8.7 4 Norte 10 Noroeste 0 -- -- 78
2019-04-29 03:00:00 9.5 4 Norte 17 Oeste 0 -- -- 76
2019-04-29 02:00:00 10.6 5 Oeste 15 Norte 0 -- -- 71
2019-04-29 01:00:00 11.7 4 Oeste 19 Noroeste 0 -- -- 66
2019-04-29 00:00:00 12.3 5 Oeste 19 Oeste 0 -- -- 64
2019-04-28 23:00:00 12.9 5 Sudoeste 16 Sudoeste 0 -- -- 62
2019-04-28 22:00:00 14.7 4 Oeste 13 Oeste 0 -- -- 57
2019-04-28 21:00:00 17.2 5 Oeste 26 Norte 0 -- -- 50
2019-04-28 20:00:00 19.6 8 Norte 29 Noroeste 0 -- -- 45
2019-04-28 19:00:00 20.4 7 Oeste 30 Oeste 0 -- -- 43
2019-04-28 18:00:00 21.4 7 Oeste 24 Oeste 0 -- -- 41
2019-04-28 17:00:00 21.8 8 Oeste 23 Oeste 0 -- -- 40
2019-04-28 16:00:00 21.4 6 Oeste 30 Norte 0 -- -- 39
2019-04-28 15:00:00 20.2 6 Oeste 22 Noroeste 0 -- -- 40
2019-04-28 14:00:00 18.6 8 Oeste 24 Oeste 0 -- -- 43
2019-04-28 13:00:00 17.2 9 Oeste 26 Noroeste 0 -- -- 46
2019-04-28 12:00:00 15.7 7 Oeste 26 Noroeste 0 -- -- 49
2019-04-28 11:00:00 14.4 8 Oeste 23 Noroeste 0 -- -- 51
2019-04-28 10:00:00 13 6 Oeste 26 Oeste 0 -- -- 57
2019-04-28 09:00:00 10.4 5 Oeste 23 Noroeste 0 -- -- 65
2019-04-28 08:00:00 9.2 6 Oeste 18 Noroeste 0 -- -- 70
2019-04-28 07:00:00 9 4 Oeste 23 Oeste 0 -- -- 70
2019-04-28 06:00:00 9.9 7 Norte 35 Noroeste 0 -- -- 64
2019-04-28 05:00:00 10.1 6 Sudoeste 23 Noroeste 0 -- -- 65
2019-04-28 04:00:00 9.4 4 Oeste 16 Noroeste 0 -- -- 70
2019-04-28 03:00:00 9 4 Oeste 11 Oeste 0 -- -- 73
2019-04-28 02:00:00 9.4 4 Sudoeste 10 Oeste 0 -- -- 72
2019-04-28 01:00:00 10.1 3 Oeste 13 Noroeste 0 -- -- 69
2019-04-28 00:00:00 10.9 3 Sudoeste 14 Noroeste 0 -- -- 66
2019-04-27 23:00:00 12 4 Oeste 15 Noroeste 0 -- -- 62
2019-04-27 22:00:00 13.4 6 Norte 16 Norte 0 -- -- 58
2019-04-27 21:00:00 15.1 8 Norte 23 Norte 0 -- -- 54
2019-04-27 20:00:00 17.1 12 Norte 32 Norte 0 -- -- 49
2019-04-27 19:00:00 18.2 15 Norte 31 Noroeste 0 -- -- 45
2019-04-27 18:00:00 19.8 10 Norte 32 Noroeste 0 -- -- 43
2019-04-27 17:00:00 20.6 11 Norte 33 Norte 0 -- -- 44
2019-04-27 16:00:00 20.5 12 Norte 29 Norte 0 -- -- 46
2019-04-27 15:00:00 19.3 5 Noroeste 20 Norte 0 -- -- 51
2019-04-27 14:00:00 19.3 7 Oeste 17 Noroeste 0 -- -- 52
2019-04-27 13:00:00 18.1 4 Oeste 19 Sudoeste 0 -- -- 57
2019-04-27 12:00:00 16.3 6 Oeste 20 Sudoeste 0 -- -- 56
2019-04-27 11:00:00 15.1 5 Oeste 19 Oeste 0 -- -- 59
2019-04-27 10:00:00 12.4 5 Oeste 13 Oeste 0 -- -- 69
2019-04-27 09:00:00 7.9 3 Oeste 11 Noroeste 0 -- -- 83
2019-04-27 08:00:00 6.1 3 Oeste 6 Oeste 0 -- -- 88
2019-04-27 07:00:00 6.1 0 Calma 8 Oeste 0 -- -- 87
2019-04-27 06:00:00 6.2 2 Sudoeste 7 Sudoeste 0 -- -- 85
2019-04-27 05:00:00 6.3 3 Sudoeste 10 Oeste 0 -- -- 84
2019-04-27 04:00:00 6.9 3 Oeste 10 Noroeste 0 -- -- 80
2019-04-27 03:00:00 7.8 3 Oeste 9 Sudoeste 0 -- -- 77
2019-04-27 02:00:00 7.7 2 Oeste 8 Oeste 0 -- -- 77
2019-04-27 01:00:00 7.9 0 Calma 7 Oeste 0 -- -- 78
2019-04-27 00:00:00 9.5 2 Oeste 8 Oeste 0 -- -- 71
2019-04-26 23:00:00 10.5 4 Norte 14 Norte 0 -- -- 68
2019-04-26 22:00:00 11.5 9 Norte 18 Norte 0 -- -- 67
2019-04-26 21:00:00 14 7 Norte 14 Noroeste 0 -- -- 60
2019-04-26 20:00:00 16.3 2 Noroeste 9 Noroeste 0 -- -- 51
2019-04-26 19:00:00 16.4 3 Oeste 15 Noroeste 0 -- -- 47
2019-04-26 18:00:00 16.3 5 Norte 18 Noroeste 0 -- -- 52
2019-04-26 17:00:00 17.5 3 Oeste 18 Norte 0 -- -- 48
2019-04-26 16:00:00 18 4 Noroeste 20 Norte 0 -- -- 44
2019-04-26 15:00:00 19 9 Norte 27 Norte 0 -- -- 40
2019-04-26 14:00:00 18 9 Norte 27 Norte 0 -- -- 47
2019-04-26 13:00:00 17.6 6 Oeste 27 Noroeste 0 -- -- 52
2019-04-26 12:00:00 16.4 8 Noroeste 23 Oeste 0 -- -- 51
2019-04-26 11:00:00 13.6 5 Oeste 19 Oeste 0 -- -- 60
2019-04-26 10:00:00 12.6 4 Oeste 11 Noroeste 0 -- -- 66
2019-04-26 09:00:00 8 2 Norte 8 Nordeste 0 -- -- 81
2019-04-26 08:00:00 6.2 0 Calma 4 Nordeste 0 -- -- 88
2019-04-26 07:00:00 6.7 0 Calma 3 Nordeste 0 -- -- 85
2019-04-26 06:00:00 8 0 Calma 6 Norte 0 -- -- 80
2019-04-26 05:00:00 9.3 2 Sur 5 Sudoeste 0 -- -- 77
2019-04-26 04:00:00 9.9 0 Calma 8 Oeste 0 -- -- 70
2019-04-26 03:00:00 9.6 2 Sudoeste 10 Sudoeste 0 -- -- 69
2019-04-26 02:00:00 9.2 0 Calma 5 Sudoeste 0 -- -- 75
2019-04-26 01:00:00 10.6 3 Sudoeste 19 Sudoeste 0 -- -- 64
2019-04-26 00:00:00 11.1 8 Sudoeste 19 Sudoeste 0 -- -- 65
2019-04-25 23:00:00 10.2 5 Sudoeste 18 Oeste 0 -- -- 71
2019-04-25 22:00:00 10.8 5 Sudoeste 12 Sur 0 -- -- 73
2019-04-25 21:00:00 12.5 4 Sur 32 Sudoeste 0 -- -- 66
2019-04-25 20:00:00 14.5 8 Sudoeste 23 Sudoeste 0 -- -- 54
2019-04-25 19:00:00 14.7 5 Sudoeste 21 Sur 0 -- -- 53
2019-04-25 18:00:00 14.1 5 Sur 27 Sudoeste 0 -- -- 60
2019-04-25 17:00:00 13.6 6 Sur 25 Sur 0.2 -- -- 63
2019-04-25 16:00:00 15.3 10 Sudoeste 28 Sudoeste 0 -- -- 52
2019-04-25 15:00:00 16.6 10 Sudoeste 25 Sudoeste 0 -- -- 49
2019-04-25 14:00:00 16 6 Sudoeste 17 Sudoeste 0 -- -- 57
2019-04-25 13:00:00 14.6 4 Sur 26 Sudoeste 0.4 -- -- 71
2019-04-25 12:00:00 15.7 6 Sur 17 Este 0 -- -- 53
2019-04-25 11:00:00 15.8 4 Sur 14 Sudoeste 0 -- -- 51
2019-04-25 10:00:00 13.8 6 Sudoeste 21 Sudoeste 0 -- -- 57
2019-04-25 09:00:00 11.2 7 Sudoeste 25 Sudoeste 0 -- -- 65
2019-04-25 08:00:00 10.1 10 Sudoeste 27 Sudoeste 0 -- -- 72
2019-04-25 07:00:00 9.6 6 Sudoeste 14 Sudoeste 0 -- -- 86
2019-04-25 06:00:00 10 5 Sudoeste 13 Sudoeste 0.2 -- -- 86
2019-04-25 05:00:00 10.5 4 Sudoeste 22 Nordeste 5.8 -- -- 92
2019-04-25 04:00:00 10.7 7 Este 27 Este 1 -- -- 91
2019-04-25 03:00:00 11.1 9 Este 27 Este 0 -- -- 89
2019-04-25 02:00:00 12.5 6 Sudeste 19 Sudeste 0 -- -- 81
2019-04-25 01:00:00 11.1 5 Este 17 Nordeste 0 -- -- 91
2019-04-25 00:00:00 10.9 6 Este 14 Nordeste 1 -- -- 94
2019-04-24 23:00:00 11.1 0 Calma 13 Nordeste 6 -- -- 92
2019-04-24 22:00:00 11.6 5 Este 31 Sudeste 0.2 -- -- 82
2019-04-24 21:00:00 11.6 9 Este 33 Nordeste 0.2 -- -- 77
2019-04-24 20:00:00 11.4 13 Este 41 Este 0 -- -- 79
2019-04-24 19:00:00 11.5 10 Este 39 Nordeste 0 -- -- 74
2019-04-24 18:00:00 11.4 12 Este 31 Este 0 -- -- 74
2019-04-24 17:00:00 10.9 10 Este 36 Sudeste 0 -- -- 74
2019-04-24 16:00:00 11.7 10 Este 28 Este 0 -- -- 66
2019-04-24 15:00:00 11.8 9 Este 24 Norte 0 -- -- 66
2019-04-24 14:00:00 11.7 6 Este 22 Sur 0 -- -- 59
2019-04-24 13:00:00 10.8 6 Sudeste 27 Sur 0.2 -- -- 66
2019-04-24 12:00:00 11.1 7 Sudeste 24 Sudoeste 0 -- -- 57
2019-04-24 11:00:00 10.7 7 Sudeste 23 Sur 0 -- -- 60
2019-04-24 10:00:00 10.9 10 Sur 24 Sudoeste 0 -- -- 61
2019-04-24 09:00:00 9.3 6 Sudeste 21 Sur 0 -- -- 72
2019-04-24 08:00:00 7.7 3 Sudeste 9 Este 0 -- -- 80
2019-04-24 07:00:00 7.7 3 Sur 8 Sudoeste 0 -- -- 86
2019-04-24 06:00:00 8.1 0 Calma 4 Sur 0 -- -- 89
2019-04-24 05:00:00 8.6 0 Calma 19 Sudoeste 0.8 -- -- 86
2019-04-24 04:00:00 9.3 0 Calma 11 Sudoeste 0 -- -- 78
2019-04-24 03:00:00 9.7 0 Calma 18 Sudoeste 0 -- -- 69
2019-04-24 02:00:00 10.3 6 Sudoeste 18 Sudoeste 0 -- -- 63
2019-04-24 01:00:00 10.1 7 Sudoeste 19 Sudoeste 0 -- -- 65
2019-04-24 00:00:00 10.7 3 Sur 20 Sudoeste 0 -- -- 63
2019-04-23 23:00:00 12.2 3 Sudoeste 19 Sudoeste 0 -- -- 63
2019-04-23 22:00:00 12.4 0 Calma 10 Sur 0 -- -- 62
2019-04-23 21:00:00 12.7 2 Sudeste 8 Sudeste 0 -- -- 67
2019-04-23 20:00:00 13.3 3 Sudoeste 19 Sudoeste 0 -- -- 69
2019-04-23 19:00:00 15.7 2 Nordeste 14 Sur 0.2 -- -- 59
2019-04-23 18:00:00 16.4 4 Sur 21 Sur 0 -- -- 57
2019-04-23 17:00:00 17.3 6 Sur 26 Sudoeste 0 -- -- 55
2019-04-23 16:00:00 17.2 8 Sur 30 Sudeste 0.2 -- -- 65
2019-04-23 15:00:00 17 9 Sudoeste 23 Sur 0 -- -- 68
2019-04-23 14:00:00 17.3 5 Sur 28 Sudoeste 1.6 -- -- 66
2019-04-23 13:00:00 20.7 9 Sur 21 Este 0 -- -- 46
2019-04-23 12:00:00 18.1 5 Sudeste 26 Nordeste 0 -- -- 65
2019-04-23 11:00:00 16.3 6 Este 21 Este 0 -- -- 68
2019-04-23 10:00:00 13.6 4 Este 16 Este 0 -- -- 79
2019-04-23 09:00:00 12.2 5 Este 13 Este 0 -- -- 84
2019-04-23 08:00:00 10.4 2 Nordeste 16 Este 0 -- -- 89
2019-04-23 07:00:00 10 3 Nordeste 13 Este 0 -- -- 89
2019-04-23 06:00:00 10.2 4 Este 14 Sudeste 0 -- -- 87
2019-04-23 05:00:00 11.1 4 Nordeste 15 Este 0 -- -- 84
2019-04-23 04:00:00 11.7 3 Nordeste 15 Nordeste 0 -- -- 81
2019-04-23 03:00:00 11.7 5 Nordeste 14 Nordeste 0 -- -- 81
2019-04-23 02:00:00 12.4 5 Nordeste 13 Nordeste 0 -- -- 78
2019-04-23 01:00:00 12.7 3 Este 14 Nordeste 0 -- -- 77
2019-04-23 00:00:00 13.3 3 Nordeste 9 Nordeste 0 -- -- 73